FVBU

Joshua Mqabuko Nkomo International Airport

Bulawayo, Zimbabwe
METAR FVBU 261200Z VRB04KT CAVOK 26/06 Q1022 NOSIG
Observed Flight Rules
Apr-26 @ 12:00 UTC (2 hours ago) Visual Flight Rules
Wind Visibility Clouds
Variable at 4 knots 10,000+ meters
  • Clear skies
Temperatures Readings
Current 26°C / 79°F
Dewpoint 6°C / 43°F
Humidity 28%
Altimeter 30.18" Hg
Pressure 1022 hPa
Elevation 1326
METAR FVBU 261200Z VRB04KT CAVOK 26/06 Q1022 NOSIG
Observed Flight Rules
Apr-26 @ 12:00 UTC
(2 hours ago)
VFR
Wind Visibility
Variable at 4 knots 10,000+ meters
Clouds
  • Clear skies
Temperature Dewpoint
26°C / 79°F 6°C / 43°F
Humidity Altimeter Pressure
28% 30.18" Hg 1022 hPa